Time;durP1;ratioP1;P1;durP2;ratioP2;P2;SDS_P1;SDS_P2;PMS_P1;PMS_P2;Temp;Humidity;BMP_temperature;BMP_pressure;BME280_temperature;BME280_humidity;BME280_pressure;Samples;Min_cycle;Max_cycle;Signal;HPM_P1;HPM_P2
2022/04/04 00:01:51;;;;;;;64.60;48.13;;;12.40;51.40;;;;;;4996573;28;94538;-37
2022/04/04 00:04:17;;;;;;;65.55;48.28;;;12.40;51.50;;;;;;4996515;28;95086;-38
2022/04/04 00:06:43;;;;;;;64.97;48.08;;;12.40;51.30;;;;;;4996882;28;95361;-40
2022/04/04 00:09:08;;;;;;;64.82;48.45;;;12.40;51.40;;;;;;4992220;28;94799;-38
2022/04/04 00:11:34;;;;;;;66.55;48.67;;;12.40;51.40;;;;;;5000091;28;94752;-38
2022/04/04 00:14:00;;;;;;;66.03;48.40;;;12.40;51.40;;;;;;4997448;28;94467;-47
2022/04/04 00:16:25;;;;;;;64.95;48.35;;;12.30;51.40;;;;;;4995272;28;95131;-34
2022/04/04 00:18:51;;;;;;;65.15;48.25;;;12.40;51.40;;;;;;5001839;28;95001;-37
2022/04/04 00:21:17;;;;;;;64.95;48.38;;;12.40;51.40;;;;;;4994303;28;96238;-35
2022/04/04 00:23:43;;;;;;;65.07;48.28;;;12.40;51.40;;;;;;4999826;28;94710;-38
2022/04/04 00:26:08;;;;;;;64.70;48.15;;;12.40;51.40;;;;;;4998501;28;95915;-40
2022/04/04 00:28:34;;;;;;;64.90;48.13;;;12.40;51.40;;;;;;4997802;28;94871;-38
2022/04/04 00:31:00;;;;;;;65.63;48.53;;;12.40;51.40;;;;;;4993852;28;95846;-36
2022/04/04 00:33:25;;;;;;;66.20;48.65;;;12.40;51.40;;;;;;4999441;28;96340;-36
2022/04/04 00:35:51;;;;;;;64.20;48.10;;;12.30;51.40;;;;;;4992556;28;95054;-39
2022/04/04 00:38:18;;;;;;;65.60;48.35;;;12.40;51.40;;;;;;4988190;28;94954;-38
2022/04/04 00:40:43;;;;;;;64.20;48.05;;;12.30;51.30;;;;;;4996074;28;94963;-38
2022/04/04 00:43:09;;;;;;;65.45;47.95;;;12.30;51.40;;;;;;4992719;28;95317;-40
2022/04/04 00:45:35;;;;;;;64.63;48.30;;;12.30;51.40;;;;;;4995613;28;95808;-41
2022/04/04 00:48:01;;;;;;;65.13;48.38;;;12.40;51.40;;;;;;4993011;28;96130;-40
2022/04/04 00:50:27;;;;;;;65.40;48.05;;;12.30;51.30;;;;;;4994229;28;96959;-38
2022/04/04 00:52:52;;;;;;;65.13;48.33;;;12.30;51.30;;;;;;4992317;28;94711;-36
2022/04/04 00:55:20;;;;;;;64.63;48.17;;;12.30;51.30;;;;;;4998929;28;95985;-38
2022/04/04 00:57:45;;;;;;;64.90;47.95;;;12.30;51.30;;;;;;4995241;28;95445;-38
2022/04/04 01:00:12;;;;;;;64.03;47.78;;;12.30;51.30;;;;;;4996957;28;94815;-34
2022/04/04 01:02:39;;;;;;;64.35;48.08;;;12.30;51.30;;;;;;4987841;28;93896;-36
2022/04/04 01:05:05;;;;;;;65.68;48.30;;;12.30;51.30;;;;;;4992387;28;95274;-38
2022/04/04 01:07:31;;;;;;;64.20;48.25;;;12.30;51.30;;;;;;4990921;28;95527;-40
2022/04/04 01:09:57;;;;;;;64.85;48.30;;;12.30;51.30;;;;;;5004818;28;95808;-40
2022/04/04 01:12:23;;;;;;;64.93;48.05;;;12.30;51.40;;;;;;4996351;28;94547;-41
2022/04/04 01:14:48;;;;;;;64.57;47.83;;;12.30;51.50;;;;;;4993339;28;95843;-41
2022/04/04 01:17:16;;;;;;;64.57;48.17;;;12.30;51.40;;;;;;4996666;28;94940;-37
2022/04/04 01:19:43;;;;;;;64.18;48.05;;;12.30;51.40;;;;;;4988781;28;94965;-38
2022/04/04 01:22:10;;;;;;;64.80;48.28;;;12.30;51.40;;;;;;4994995;28;95144;-38
2022/04/04 01:24:38;;;;;;;64.00;48.05;;;12.30;51.40;;;;;;4994100;28;95371;-42
2022/04/04 01:27:05;;;;;;;63.95;47.80;;;12.30;51.30;;;;;;4993215;28;95821;-38
2022/04/04 01:29:31;;;;;;;64.35;48.00;;;12.30;51.30;;;;;;4996924;28;94515;-38
2022/04/04 01:31:58;;;;;;;63.92;47.65;;;12.30;51.40;;;;;;4992923;28;95080;-37
2022/04/04 01:34:24;;;;;;;64.47;47.95;;;12.20;51.30;;;;;;4988869;28;96742;-32
2022/04/04 01:36:50;;;;;;;65.70;47.95;;;12.20;51.30;;;;;;4991966;28;94888;-35
2022/04/04 01:39:16;;;;;;;64.20;48.22;;;12.30;51.30;;;;;;4994742;28;95014;-37
2022/04/04 01:41:42;;;;;;;65.22;48.05;;;12.30;51.30;;;;;;5000752;28;94976;-39
2022/04/04 01:44:08;;;;;;;65.35;48.15;;;12.30;51.30;;;;;;4992068;28;95712;-38
2022/04/04 01:46:34;;;;;;;64.28;47.92;;;12.20;51.30;;;;;;4989406;28;94608;-36
2022/04/04 01:49:01;;;;;;;63.80;47.33;;;12.20;51.30;;;;;;4994515;28;94878;-38
2022/04/04 01:51:28;;;;;;;64.57;48.15;;;12.20;51.30;;;;;;4990299;28;94158;-34
2022/04/04 01:53:54;;;;;;;64.50;47.70;;;12.20;51.30;;;;;;4994431;28;96041;-35
2022/04/04 01:56:20;;;;;;;65.82;48.70;;;12.20;51.30;;;;;;4997644;28;94979;-36
2022/04/04 01:58:46;;;;;;;65.10;48.13;;;12.30;51.40;;;;;;4991480;28;97294;-39
2022/04/04 02:01:14;;;;;;;65.18;48.13;;;12.20;51.30;;;;;;4992272;28;94961;-35
2022/04/04 02:03:41;;;;;;;64.35;47.97;;;12.20;51.20;;;;;;4989716;28;94702;-37
2022/04/04 02:06:07;;;;;;;63.78;47.85;;;12.20;51.20;;;;;;4999245;28;94844;-37
2022/04/04 02:08:33;;;;;;;64.30;48.13;;;12.20;51.30;;;;;;4993934;28;94376;-37
2022/04/04 02:11:00;;;;;;;64.38;48.20;;;12.20;51.30;;;;;;4996970;28;94939;-39
2022/04/04 02:13:26;;;;;;;63.70;47.88;;;12.20;51.40;;;;;;4995740;28;94840;-40
2022/04/04 02:15:52;;;;;;;64.28;47.95;;;12.20;51.40;;;;;;4993109;28;94183;-40
2022/04/04 02:18:19;;;;;;;64.53;47.78;;;12.20;51.40;;;;;;5000389;28;95289;-42
2022/04/04 02:20:45;;;;;;;63.55;47.70;;;12.20;51.30;;;;;;4994491;28;95020;-39
2022/04/04 02:23:11;;;;;;;64.47;48.28;;;12.20;51.30;;;;;;4990993;28;96229;-36
2022/04/04 02:25:37;;;;;;;63.75;47.58;;;12.20;51.40;;;;;;4986925;28;96282;-36
2022/04/04 02:28:03;;;;;;;65.10;48.20;;;12.20;51.40;;;;;;4986933;28;94539;-38
2022/04/04 02:30:29;;;;;;;63.80;47.92;;;12.20;51.30;;;;;;4988108;28;95043;-37
2022/04/04 02:32:55;;;;;;;64.85;48.38;;;12.10;51.40;;;;;;4985561;28;95882;-39
2022/04/04 02:35:21;;;;;;;64.28;48.08;;;12.20;51.30;;;;;;4996337;28;95355;-38
2022/04/04 02:37:47;;;;;;;63.63;47.85;;;12.20;51.50;;;;;;4991899;28;94966;-36
2022/04/04 02:40:13;;;;;;;63.58;47.75;;;12.10;51.30;;;;;;4987700;28;94246;-38
2022/04/04 02:42:39;;;;;;;64.10;48.03;;;12.10;51.50;;;;;;4991078;28;94860;-39
2022/04/04 02:45:05;;;;;;;64.40;48.17;;;12.20;51.50;;;;;;4987737;28;95098;-36
2022/04/04 02:47:31;;;;;;;63.58;47.80;;;12.20;51.30;;;;;;4993037;28;95719;-36
2022/04/04 02:49:57;;;;;;;63.70;47.65;;;12.20;51.40;;;;;;4992133;28;96924;-39
2022/04/04 02:52:22;;;;;;;64.78;48.03;;;12.10;51.30;;;;;;4997968;28;95248;-37
2022/04/04 02:54:48;;;;;;;65.00;48.35;;;12.10;51.50;;;;;;4992395;28;97711;-39
2022/04/04 02:57:16;;;;;;;64.47;47.50;;;12.10;51.60;;;;;;4994401;28;94840;-39
2022/04/04 02:59:42;;;;;;;64.85;47.97;;;12.10;51.40;;;;;;4989933;28;94986;-40
2022/04/04 03:02:07;;;;;;;64.13;47.92;;;12.10;51.40;;;;;;4994544;28;95608;-39
2022/04/04 03:04:35;;;;;;;62.63;47.45;;;12.10;51.50;;;;;;4988014;28;94852;-40
2022/04/04 03:07:00;;;;;;;63.60;47.60;;;12.10;51.50;;;;;;4995246;28;94565;-38
2022/04/04 03:09:26;;;;;;;64.00;47.63;;;12.10;51.60;;;;;;4997383;28;95080;-38
2022/04/04 03:11:52;;;;;;;64.45;47.75;;;12.10;51.40;;;;;;4993129;28;95910;-40
2022/04/04 03:14:17;;;;;;;63.78;47.72;;;12.10;51.50;;;;;;4995168;28;96326;-37
2022/04/04 03:16:43;;;;;;;64.00;47.72;;;12.10;51.40;;;;;;4988236;28;94777;-36
2022/04/04 03:19:09;;;;;;;64.03;47.55;;;12.10;51.50;;;;;;4993018;28;94840;-37
2022/04/04 03:21:35;;;;;;;64.40;47.83;;;12.10;51.40;;;;;;4995046;28;96816;-37
2022/04/04 03:24:01;;;;;;;62.63;47.35;;;12.10;51.40;;;;;;4992527;28;95278;-51
2022/04/04 03:26:31;;;;;;;63.47;47.83;;;12.10;51.50;;;;;;4985184;28;95715;-40
2022/04/04 03:28:57;;;;;;;63.28;47.55;;;12.10;51.60;;;;;;4993420;28;94377;-37
2022/04/04 03:31:22;;;;;;;63.22;47.55;;;12.10;51.50;;;;;;4996330;28;95036;-40
2022/04/04 03:33:48;;;;;;;64.38;47.95;;;12.00;51.50;;;;;;4995543;28;94776;-37
2022/04/04 03:36:13;;;;;;;63.47;47.55;;;12.10;51.50;;;;;;4990299;28;95826;-42
2022/04/04 03:38:39;;;;;;;63.63;47.38;;;12.00;51.60;;;;;;4989376;28;95143;-36
2022/04/04 03:41:05;;;;;;;63.17;47.60;;;12.10;51.50;;;;;;4990144;28;95337;-37
2022/04/04 03:43:31;;;;;;;63.33;47.60;;;12.10;51.50;;;;;;4992366;28;94873;-39
2022/04/04 03:45:56;;;;;;;63.35;47.63;;;12.00;51.40;;;;;;4988149;28;94509;-39
2022/04/04 03:48:22;;;;;;;63.03;47.28;;;12.00;51.60;;;;;;5001824;28;94916;-41
2022/04/04 03:50:51;;;;;;;63.00;47.40;;;12.00;51.40;;;;;;4986292;28;95356;-37
2022/04/04 03:53:17;;;;;;;63.17;47.65;;;12.00;51.40;;;;;;4999259;28;94120;-39
2022/04/04 03:55:43;;;;;;;63.08;47.28;;;12.00;51.40;;;;;;4995166;28;95024;-40
2022/04/04 03:58:10;;;;;;;63.38;47.55;;;12.00;51.40;;;;;;4993165;28;94779;-38
2022/04/04 04:00:39;;;;;;;62.72;47.17;;;12.00;51.40;;;;;;4981651;28;96802;-40
2022/04/04 04:03:06;;;;;;;62.83;47.30;;;12.00;51.50;;;;;;4994888;28;95724;-38
2022/04/04 04:05:32;;;;;;;63.20;47.33;;;12.00;51.50;;;;;;4990788;28;95019;-36
2022/04/04 04:07:57;;;;;;;62.90;47.42;;;12.00;51.50;;;;;;4998369;28;95222;-40
2022/04/04 04:10:23;;;;;;;63.42;47.45;;;12.00;51.50;;;;;;4998723;28;94765;-38
2022/04/04 04:12:49;;;;;;;63.78;47.65;;;12.00;51.50;;;;;;4993199;28;95651;-39
2022/04/04 04:15:21;;;;;;;63.47;47.75;;;12.00;51.40;;;;;;4994164;28;94711;-47
2022/04/04 04:17:51;;;;;;;63.30;47.53;;;12.00;51.60;;;;;;4989637;28;94688;-38
2022/04/04 04:20:23;;;;;;;63.70;47.35;;;12.00;51.50;;;;;;4994808;28;95273;-36
2022/04/04 04:23:04;;;;;;;63.53;47.53;;;12.00;51.50;;;;;;4998215;28;96080;-36
2022/04/04 04:25:31;;;;;;;63.47;47.60;;;12.00;51.70;;;;;;4995535;28;95905;-38
2022/04/04 04:28:00;;;;;;;63.08;47.58;;;12.10;51.60;;;;;;4992349;28;98045;-35
2022/04/04 04:30:26;;;;;;;63.47;47.50;;;12.10;51.50;;;;;;4993974;28;95107;-38
2022/04/04 04:32:53;;;;;;;62.95;47.28;;;12.00;51.40;;;;;;4991791;28;96117;-35
2022/04/04 04:35:19;;;;;;;62.53;47.05;;;12.00;51.60;;;;;;4993809;28;96513;-35
2022/04/04 04:37:46;;;;;;;62.63;47.13;;;12.00;51.50;;;;;;4996023;28;94576;-37
2022/04/04 04:40:12;;;;;;;62.72;47.17;;;12.00;51.50;;;;;;4997770;28;94925;-38
2022/04/04 04:42:39;;;;;;;64.18;47.47;;;12.00;51.50;;;;;;4988745;27;95018;-34
2022/04/04 04:45:06;;;;;;;63.15;47.35;;;12.00;51.40;;;;;;4991571;28;94875;-36
2022/04/04 04:47:32;;;;;;;63.25;47.42;;;12.00;51.50;;;;;;4996919;28;94967;-38
2022/04/04 04:49:59;;;;;;;62.70;47.15;;;12.00;51.50;;;;;;4995430;28;95998;-38
2022/04/04 04:52:26;;;;;;;63.33;47.40;;;12.00;51.50;;;;;;4993713;28;95796;-36
2022/04/04 04:54:53;;;;;;;62.90;47.28;;;12.10;51.50;;;;;;4997576;28;94870;-39
2022/04/04 04:57:19;;;;;;;63.80;47.72;;;12.00;51.40;;;;;;5000231;28;94855;-36
2022/04/04 04:59:46;;;;;;;64.40;47.85;;;12.10;51.60;;;;;;4988675;28;94856;-41
2022/04/04 05:02:11;;;;;;;63.95;47.75;;;12.00;51.40;;;;;;4988512;28;94695;-38
2022/04/04 05:04:37;;;;;;;63.40;47.53;;;12.00;51.40;;;;;;4994385;28;95034;-38
2022/04/04 05:07:05;;;;;;;62.80;47.03;;;12.00;51.40;;;;;;4993725;28;94203;-35
2022/04/04 05:09:30;;;;;;;63.28;47.35;;;12.00;52.10;;;;;;4999922;28;95098;-38
2022/04/04 05:11:56;;;;;;;63.22;47.75;;;12.10;51.60;;;;;;4997502;28;97016;-39
2022/04/04 05:14:22;;;;;;;64.20;47.80;;;12.10;51.30;;;;;;4991988;28;95843;-38
2022/04/04 05:16:48;;;;;;;63.42;47.70;;;12.10;51.30;;;;;;4993032;28;96069;-37
2022/04/04 05:19:19;;;;;;;63.40;47.60;;;12.10;51.30;;;;;;4997705;27;95202;-44
2022/04/04 05:21:45;;;;;;;64.68;47.75;;;12.10;51.40;;;;;;4989375;28;95704;-43
2022/04/04 05:24:12;;;;;;;63.58;47.92;;;12.10;51.40;;;;;;4994890;28;94982;-39
2022/04/04 05:26:38;;;;;;;64.22;47.65;;;12.10;51.40;;;;;;4992195;28;94804;-42
2022/04/04 05:29:04;;;;;;;63.80;47.38;;;12.10;51.40;;;;;;4997984;28;94519;-40
2022/04/04 05:31:30;;;;;;;64.20;47.88;;;12.10;51.30;;;;;;4992415;28;95192;-39
2022/04/04 05:33:57;;;;;;;64.00;47.65;;;12.10;51.30;;;;;;4993252;28;94869;-38
2022/04/04 05:36:25;;;;;;;63.70;47.75;;;12.10;51.40;;;;;;4994561;28;94682;-41
2022/04/04 05:38:50;;;;;;;64.10;47.65;;;12.10;51.30;;;;;;4995138;28;96091;-39
2022/04/04 05:41:18;;;;;;;63.42;47.47;;;12.10;51.20;;;;;;4995403;28;96386;-38
2022/04/04 05:43:44;;;;;;;63.58;47.45;;;12.10;51.40;;;;;;4991900;28;94844;-38
2022/04/04 05:46:16;;;;;;;64.30;47.92;;;12.10;51.30;;;;;;4993963;28;95030;-38
2022/04/04 05:48:42;;;;;;;;;;;12.10;51.20;;;;;;5000538;28;94986;-38
2022/04/04 05:51:08;;;;;;;62.85;47.35;;;12.10;51.20;;;;;;4996387;28;94468;-42
2022/04/04 05:53:34;;;;;;;63.75;47.38;;;12.10;51.30;;;;;;4994393;28;94686;-37
2022/04/04 05:56:00;;;;;;;65.93;48.22;;;12.10;51.30;;;;;;4992848;28;93940;-38
2022/04/04 05:58:26;;;;;;;64.68;47.88;;;12.10;51.80;;;;;;4996267;28;95282;-37
2022/04/04 06:00:51;;;;;;;64.07;47.58;;;12.20;51.30;;;;;;4996171;28;95094;-40
2022/04/04 06:03:18;;;;;;;66.00;48.20;;;12.20;51.10;;;;;;4992389;28;96086;-40
2022/04/04 06:05:46;;;;;;;64.25;47.92;;;12.20;51.10;;;;;;4994674;28;94933;-39
2022/04/04 06:08:12;;;;;;;64.93;47.92;;;12.20;51.30;;;;;;4991515;28;95314;-39
2022/04/04 06:10:37;;;;;;;65.75;48.03;;;12.20;51.20;;;;;;4991185;28;95143;-38
2022/04/04 06:13:03;;;;;;;64.10;47.60;;;12.20;51.20;;;;;;4994538;28;94924;-38
2022/04/04 06:15:29;;;;;;;64.60;47.90;;;12.20;51.20;;;;;;4991065;28;95753;-37
2022/04/04 06:17:54;;;;;;;64.20;47.80;;;12.20;51.10;;;;;;4992257;28;94929;-40
2022/04/04 06:20:20;;;;;;;64.65;47.80;;;12.30;51.20;;;;;;4984728;28;95364;-36
2022/04/04 06:22:46;;;;;;;64.28;47.85;;;12.30;51.00;;;;;;4972862;28;94874;-45
2022/04/04 06:25:15;;;;;;;65.35;48.00;;;12.30;51.10;;;;;;4967769;28;94714;-38
2022/04/04 06:27:41;;;;;;;64.68;47.78;;;12.30;51.10;;;;;;4968752;28;96738;-34
2022/04/04 06:30:08;;;;;;;65.60;47.90;;;12.30;51.00;;;;;;4974079;28;94683;-35
2022/04/04 06:32:34;;;;;;;65.50;48.15;;;12.30;51.10;;;;;;4973011;28;94873;-40
2022/04/04 06:35:00;;;;;;;65.03;48.15;;;12.30;51.00;;;;;;4972188;28;95069;-37
2022/04/04 06:37:26;;;;;;;65.47;47.95;;;12.40;51.00;;;;;;4973946;28;94531;-41
2022/04/04 06:39:52;;;;;;;66.65;48.05;;;12.40;51.00;;;;;;4971089;28;94970;-34
2022/04/04 06:42:18;;;;;;;65.72;48.35;;;12.40;51.00;;;;;;4973453;28;94667;-36
2022/04/04 06:44:44;;;;;;;65.93;48.35;;;12.40;50.90;;;;;;4971794;28;94930;-37
2022/04/04 06:47:10;;;;;;;66.28;48.45;;;12.40;50.90;;;;;;4976073;28;95269;-38
2022/04/04 06:49:35;;;;;;;65.45;48.35;;;12.40;50.80;;;;;;4974946;28;94554;-39
2022/04/04 06:52:01;;;;;;;66.78;48.25;;;12.40;50.80;;;;;;4979553;28;96005;-41
2022/04/04 06:54:27;;;;;;;65.88;48.33;;;12.40;50.90;;;;;;4982368;28;94819;-36
2022/04/04 06:56:55;;;;;;;65.95;48.22;;;12.40;50.80;;;;;;4975353;28;95328;-37
2022/04/04 06:59:21;;;;;;;65.63;48.15;;;12.50;50.80;;;;;;4983960;28;95507;-40
2022/04/04 07:01:47;;;;;;;67.63;48.70;;;12.50;50.70;;;;;;4966845;28;94624;-43
2022/04/04 07:04:13;;;;;;;65.78;48.05;;;12.50;50.70;;;;;;4975066;28;95550;-39
2022/04/04 07:06:39;;;;;;;65.65;48.25;;;12.50;50.70;;;;;;4970138;28;95193;-39
2022/04/04 07:09:05;;;;;;;65.78;48.20;;;12.50;50.60;;;;;;4971132;28;94626;-37
2022/04/04 07:11:31;;;;;;;66.55;48.58;;;12.60;50.70;;;;;;4978392;28;94632;-38
2022/04/04 07:13:57;;;;;;;65.88;47.92;;;12.60;50.60;;;;;;4963472;28;94959;-43
2022/04/04 07:16:23;;;;;;;66.78;48.55;;;12.60;50.50;;;;;;4977192;28;96806;-43
2022/04/04 07:18:49;;;;;;;67.47;48.90;;;12.70;50.60;;;;;;4972615;28;98972;-36
2022/04/04 07:21:15;;;;;;;66.63;48.63;;;12.70;50.50;;;;;;4997338;28;95189;-39
2022/04/04 07:23:41;;;;;;;66.00;48.25;;;12.70;50.50;;;;;;4990826;28;95009;-40
2022/04/04 07:26:07;;;;;;;67.60;48.75;;;12.70;50.60;;;;;;4994204;28;94576;-36
2022/04/04 07:28:33;;;;;;;67.63;49.05;;;12.70;50.50;;;;;;4989796;28;94969;-35
2022/04/04 07:31:00;;;;;;;67.78;48.90;;;12.70;50.40;;;;;;4996049;28;94648;-37
2022/04/04 07:33:26;;;;;;;66.75;48.65;;;12.80;50.40;;;;;;4997110;28;94381;-36
2022/04/04 07:35:52;;;;;;;67.90;48.92;;;12.80;50.40;;;;;;4993387;28;95475;-40
2022/04/04 07:38:18;;;;;;;67.40;48.80;;;12.80;50.40;;;;;;4984802;28;95116;-38
2022/04/04 07:40:43;;;;;;;68.93;48.95;;;12.80;50.40;;;;;;4992539;28;98154;-38
2022/04/04 07:43:09;;;;;;;68.00;48.78;;;12.80;50.40;;;;;;4993460;28;94933;-41
2022/04/04 07:45:35;;;;;;;67.60;48.70;;;12.80;50.40;;;;;;4989841;28;95572;-39
2022/04/04 07:48:03;;;;;;;69.47;49.17;;;12.90;50.40;;;;;;4996743;28;96153;-40
2022/04/04 07:50:30;;;;;;;67.57;48.83;;;12.90;50.20;;;;;;4994897;28;95159;-39
2022/04/04 07:52:56;;;;;;;68.07;48.75;;;12.90;50.30;;;;;;4993187;28;95227;-44
2022/04/04 07:55:22;;;;;;;66.60;48.22;;;12.90;50.40;;;;;;4994573;28;95059;-39
2022/04/04 07:57:47;;;;;;;67.40;48.50;;;12.90;50.40;;;;;;4991161;28;94817;-38
2022/04/04 08:00:17;;;;;;;66.40;48.35;;;12.80;50.40;;;;;;4994245;28;94762;-38
2022/04/04 08:02:43;;;;;;;66.88;48.45;;;12.80;50.40;;;;;;4996493;28;95032;-38
2022/04/04 08:05:09;;;;;;;67.03;48.53;;;12.80;50.40;;;;;;4994717;28;96682;-37
2022/04/04 08:07:36;;;;;;;66.28;48.17;;;12.80;50.50;;;;;;4990561;28;96181;-39
2022/04/04 08:10:02;;;;;;;67.13;48.65;;;12.90;50.50;;;;;;4991725;28;95758;-35
2022/04/04 08:12:28;;;;;;;68.63;48.67;;;12.90;50.50;;;;;;4991683;28;94977;-36
2022/04/04 08:14:54;;;;;;;68.03;48.33;;;12.90;50.50;;;;;;4995350;28;96207;-38
2022/04/04 08:17:20;;;;;;;67.35;48.83;;;12.90;50.40;;;;;;4991555;28;95098;-36
2022/04/04 08:19:46;;;;;;;68.22;48.95;;;12.90;50.40;;;;;;4995179;28;94842;-38
2022/04/04 08:22:12;;;;;;;67.90;48.78;;;13.00;50.40;;;;;;4988458;28;93984;-38
2022/04/04 08:24:38;;;;;;;67.55;48.92;;;13.00;50.30;;;;;;4995649;28;95672;-37
2022/04/04 08:27:04;;;;;;;68.13;48.78;;;13.00;50.30;;;;;;4995613;28;97229;-41
2022/04/04 08:29:30;;;;;;;67.97;48.85;;;13.00;50.30;;;;;;4993675;28;98470;-35
2022/04/04 08:31:56;;;;;;;68.35;49.08;;;13.00;50.30;;;;;;4999025;28;95025;-38
2022/04/04 08:34:21;;;;;;;68.22;49.03;;;13.00;50.30;;;;;;4996889;28;95864;-35
2022/04/04 08:36:47;;;;;;;67.65;48.70;;;13.00;50.30;;;;;;4997607;28;94461;-39
2022/04/04 08:39:13;;;;;;;68.50;48.95;;;13.00;50.20;;;;;;4997186;28;94724;-40
2022/04/04 08:41:39;;;;;;;68.88;49.17;;;13.00;50.20;;;;;;4994295;28;95072;-39
2022/04/04 08:44:05;;;;;;;68.13;48.65;;;13.10;50.30;;;;;;4996193;28;94833;-40
2022/04/04 08:46:33;;;;;;;68.07;48.65;;;13.00;50.20;;;;;;4993049;28;97568;-39
2022/04/04 08:49:00;;;;;;;68.07;48.88;;;13.00;50.20;;;;;;4993325;28;95040;-39
2022/04/04 08:51:26;;;;;;;68.43;48.83;;;13.10;50.30;;;;;;4996723;28;95291;-41
2022/04/04 08:53:53;;;;;;;68.30;48.85;;;13.10;50.20;;;;;;4990084;28;95900;-39
2022/04/04 08:56:21;;;;;;;67.97;48.65;;;13.10;50.20;;;;;;4998825;28;95932;-37
2022/04/04 08:58:47;;;;;;;67.38;48.33;;;13.10;50.20;;;;;;4991593;28;94910;-42
2022/04/04 09:01:13;;;;;;;67.45;48.50;;;13.10;50.20;;;;;;4991833;28;94990;-39
2022/04/04 09:03:38;;;;;;;68.10;48.78;;;13.10;50.20;;;;;;4996001;28;95670;-36
2022/04/04 09:06:05;;;;;;;68.13;48.92;;;13.10;50.10;;;;;;4993544;28;94662;-37
2022/04/04 09:08:46;;;;;;;68.13;48.58;;;13.10;50.20;;;;;;4991735;28;95089;-42
2022/04/04 09:11:13;;;;;;;66.77;48.27;;;13.10;50.20;;;;;;4993643;28;94004;-36
2022/04/04 09:13:39;;;;;;;67.18;48.42;;;13.20;50.20;;;;;;4986927;28;95657;-40
2022/04/04 09:16:06;;;;;;;70.38;48.83;;;13.20;50.20;;;;;;4995178;28;95262;-36
2022/04/04 09:18:40;;;;;;;68.20;49.03;;;13.10;50.10;;;;;;4995389;28;95708;-38
2022/04/04 09:21:18;;;;;;;67.32;48.55;;;13.10;50.10;;;;;;4954631;27;1207370;-39
2022/04/04 09:23:48;;;;;;;67.00;48.35;;;13.10;50.20;;;;;;4990115;28;95328;-38
2022/04/04 09:26:32;;;;;;;67.03;48.28;;;13.20;50.30;;;;;;4998492;28;94989;-39
2022/04/04 09:29:17;;;;;;;68.57;48.85;;;13.10;50.20;;;;;;4997526;28;94964;-38
2022/04/04 09:32:14;;;;;;;67.30;48.63;;;13.10;50.20;;;;;;4995499;28;95145;-37
2022/04/04 09:35:08;;;;;;;67.10;48.40;;;13.10;50.20;;;;;;4988215;28;95310;-38
2022/04/04 09:37:36;;;;;;;66.15;47.97;;;13.10;50.30;;;;;;4989187;28;94417;-37
2022/04/04 09:40:07;;;;;;;67.13;48.55;;;13.10;50.30;;;;;;4988718;28;94761;-34
2022/04/04 09:42:33;;;;;;;67.43;48.47;;;13.10;50.30;;;;;;4996419;28;95098;-39
2022/04/04 09:45:11;;;;;;;66.97;48.47;;;13.10;50.20;;;;;;4994800;28;96231;-38
2022/04/04 09:47:46;;;;;;;67.55;48.42;;;13.10;50.20;;;;;;4997320;28;95717;-35
2022/04/04 09:50:32;;;;;;;67.72;48.63;;;13.20;50.30;;;;;;4992531;28;96787;-41
2022/04/04 09:53:02;;;;;;;68.32;48.67;;;13.20;50.30;;;;;;4993229;28;94944;-36
2022/04/04 09:55:35;;;;;;;67.55;48.72;;;13.20;50.20;;;;;;4985696;28;95264;-39
2022/04/04 09:58:04;;;;;;;67.95;48.97;;;13.20;50.20;;;;;;4997283;28;95022;-40
2022/04/04 10:00:30;;;;;;;67.55;48.83;;;13.20;50.20;;;;;;4987067;28;94981;-37
2022/04/04 10:02:57;;;;;;;68.85;49.40;;;13.20;50.20;;;;;;4995874;28;93878;-37
2022/04/04 10:05:26;;;;;;;67.93;48.85;;;13.20;50.30;;;;;;4993111;28;95805;-37
2022/04/04 10:07:57;;;;;;;68.13;49.05;;;13.20;50.30;;;;;;4992703;28;94527;-37
2022/04/04 10:10:29;;;;;;;67.95;48.72;;;13.20;50.20;;;;;;4991590;28;96083;-35
2022/04/04 10:12:56;;;;;;;67.80;48.83;;;13.20;50.20;;;;;;4992170;28;94919;-38
2022/04/04 10:15:23;;;;;;;68.35;48.78;;;13.20;50.20;;;;;;4986066;28;94767;-39
2022/04/04 10:17:50;;;;;;;68.38;48.90;;;13.20;50.20;;;;;;4988407;28;94763;-39
2022/04/04 10:20:17;;;;;;;68.32;48.85;;;13.30;50.20;;;;;;4978620;28;95503;-38
2022/04/04 10:22:45;;;;;;;68.55;49.00;;;13.30;50.10;;;;;;4968929;28;95088;-40
2022/04/04 10:25:16;;;;;;;67.78;49.00;;;13.20;50.10;;;;;;4973351;28;95230;-49
2022/04/04 10:27:47;;;;;;;67.93;48.70;;;13.20;50.10;;;;;;4975243;28;95083;-39
2022/04/04 10:30:15;;;;;;;70.20;48.90;;;13.20;50.20;;;;;;4974469;28;94970;-40
2022/04/04 10:32:52;;;;;;;67.68;48.13;;;13.20;50.20;;;;;;4971152;28;95008;-37
2022/04/04 10:35:29;;;;;;;69.20;48.65;;;13.20;50.20;;;;;;4966978;28;100743;-38
2022/04/04 10:38:03;;;;;;;68.10;48.72;;;13.20;50.20;;;;;;4977919;28;95733;-35
2022/04/04 10:40:30;;;;;;;69.32;48.70;;;13.20;50.30;;;;;;4972299;28;95026;-37
2022/04/04 10:43:11;;;;;;;67.88;48.60;;;13.20;50.20;;;;;;4974665;28;95125;-38
2022/04/04 10:46:07;;;;;;;66.95;48.50;;;13.20;50.30;;;;;;4975367;28;95289;-35
2022/04/04 10:48:42;;;;;;;67.78;48.75;;;13.30;50.30;;;;;;4973793;28;94873;-36
2022/04/04 10:51:13;;;;;;;67.43;48.65;;;13.30;50.30;;;;;;4971897;28;94778;-40
2022/04/04 10:53:51;;;;;;;67.05;48.75;;;13.20;50.30;;;;;;4974550;28;94151;-39
2022/04/04 10:56:22;;;;;;;66.82;48.58;;;13.30;50.30;;;;;;4970792;28;94831;-38
2022/04/04 10:58:53;;;;;;;68.82;48.75;;;13.30;50.30;;;;;;4977745;28;94550;-38
2022/04/04 11:01:21;;;;;;;69.03;49.05;;;13.30;50.40;;;;;;4972612;28;96968;-40
2022/04/04 11:03:52;;;;;;;67.25;48.42;;;13.30;50.30;;;;;;4976264;28;94897;-41
2022/04/04 11:09:26;;;;;;;68.30;49.03;;;13.30;50.30;;;;;;4977205;28;95177;-35
2022/04/04 11:12:09;;;;;;;67.28;48.60;;;13.30;50.30;;;;;;4972336;28;94907;-37
2022/04/04 11:14:38;;;;;;;66.95;48.45;;;13.30;50.30;;;;;;4975556;28;94822;-38
2022/04/04 11:17:07;;;;;;;67.93;48.60;;;13.30;50.30;;;;;;4979097;28;95649;-38
2022/04/04 11:19:49;;;;;;;68.30;48.63;;;13.30;50.30;;;;;;4988477;28;95724;-39
2022/04/04 11:22:25;;;;;;;68.07;48.70;;;13.30;50.30;;;;;;4997183;28;96635;-35
2022/04/04 11:24:53;;;;;;;68.43;48.67;;;13.30;50.30;;;;;;4992950;28;95114;-37
2022/04/04 11:27:27;;;;;;;68.88;48.58;;;13.30;50.20;;;;;;4995690;28;96171;-36
2022/04/04 11:29:53;;;;;;;67.70;48.75;;;13.40;50.20;;;;;;4981819;28;95680;-36
2022/04/04 11:32:31;;;;;;;68.00;48.80;;;13.40;50.20;;;;;;4990344;28;94986;-37
2022/04/04 11:35:01;;;;;;;68.05;48.60;;;13.40;50.30;;;;;;4995793;28;94946;-40
2022/04/04 11:37:29;;;;;;;67.60;48.28;;;13.40;50.30;;;;;;4989240;28;94874;-34
2022/04/04 11:40:03;;;;;;;69.50;48.70;;;13.30;50.20;;;;;;4993273;28;95002;-34
2022/04/04 11:42:39;;;;;;;67.25;48.35;;;13.40;50.40;;;;;;4989889;28;98278;-37
2022/04/04 11:45:05;;;;;;;68.28;48.65;;;13.30;50.40;;;;;;4992660;28;94126;-39
2022/04/04 11:47:32;;;;;;;67.72;48.53;;;13.40;50.40;;;;;;4987257;28;95172;-38
2022/04/04 11:50:01;;;;;;;67.82;48.45;;;13.40;50.60;;;;;;4984794;28;98814;-41
2022/04/04 11:52:27;;;;;;;68.53;48.53;;;13.30;50.40;;;;;;4986419;28;96758;-40
2022/04/04 11:54:53;;;;;;;67.18;48.40;;;13.30;50.40;;;;;;4992134;28;97196;-42
2022/04/04 11:57:22;;;;;;;66.78;48.33;;;13.40;50.40;;;;;;4993581;28;95602;-38
2022/04/04 11:59:49;;;;;;;67.65;48.60;;;13.40;50.40;;;;;;4994626;28;95052;-41
2022/04/04 12:02:16;;;;;;;68.45;48.75;;;13.40;50.50;;;;;;4983215;28;95217;-42
2022/04/04 12:04:43;;;;;;;67.55;48.38;;;13.40;50.50;;;;;;4988794;28;94812;-40
2022/04/04 12:07:10;;;;;;;67.28;48.28;;;13.40;50.50;;;;;;4987147;28;95032;-40
2022/04/04 12:09:37;;;;;;;67.60;48.47;;;13.40;50.50;;;;;;4995474;28;95728;-40
2022/04/04 12:12:10;;;;;;;68.53;48.75;;;13.40;50.40;;;;;;4987050;28;95912;-40
2022/04/04 12:14:38;;;;;;;67.60;48.60;;;13.40;50.40;;;;;;4990741;28;95012;-37
2022/04/04 12:17:08;;;;;;;67.25;48.28;;;13.40;50.40;;;;;;4993018;28;96404;-38
2022/04/04 12:19:47;;;;;;;67.78;48.53;;;13.50;50.40;;;;;;4991256;28;95292;-37
2022/04/04 12:25:00;;;;;;;68.07;48.72;;;13.50;50.50;;;;;;4991455;28;95166;-37
2022/04/04 12:27:26;;;;;;;68.43;48.85;;;13.40;50.40;;;;;;4990985;28;95216;-38
2022/04/04 12:29:59;;;;;;;67.72;48.72;;;13.40;50.50;;;;;;4994357;28;94987;-38
2022/04/04 12:32:25;;;;;;;67.70;48.53;;;13.40;50.50;;;;;;4992426;28;94962;-39
2022/04/04 12:35:08;;;;;;;68.35;48.53;;;13.40;50.50;;;;;;4987002;28;94244;-38
2022/04/04 12:37:44;;;;;;;67.90;48.55;;;13.40;50.40;;;;;;4990460;28;95919;-37